createdAt,value
2023-03-12T00:02:38.395Z,99725.31
2023-03-12T00:07:42.522Z,99739.66
2023-03-12T00:12:45.284Z,99739.56
2023-03-12T00:17:48.504Z,99728.75
2023-03-12T00:22:52.609Z,99729.63
2023-03-12T00:27:55.349Z,99734.03
2023-03-12T00:32:58.124Z,99743.81
2023-03-12T00:38:02.178Z,99738.28
2023-03-12T00:43:04.962Z,99741.00
2023-03-12T00:48:08.041Z,99737.56
2023-03-12T00:53:12.199Z,99742.34
2023-03-12T00:58:14.946Z,99741.25
2023-03-12T01:03:17.912Z,99741.13
2023-03-12T01:08:23.045Z,99743.97
2023-03-12T01:13:26.151Z,99747.66
2023-03-12T01:18:28.861Z,99740.16
2023-03-12T01:23:33.278Z,99744.38
2023-03-12T01:28:36.018Z,99744.38
2023-03-12T01:33:38.862Z,99745.88
2023-03-12T01:38:42.994Z,99745.75
2023-03-12T01:43:46.257Z,99740.00
2023-03-12T01:48:52.562Z,99742.34
2023-03-12T01:54:00.368Z,99729.34
2023-03-12T01:59:11.174Z,99737.78
2023-03-12T02:04:17.238Z,99736.56
2023-03-12T02:09:23.124Z,99741.34
2023-03-12T02:14:27.368Z,99735.59
2023-03-12T02:19:39.309Z,99749.41
2023-03-12T02:24:49.744Z,99751.63
2023-03-12T02:29:53.843Z,99742.19
2023-03-12T02:34:58.027Z,99742.41
2023-03-12T02:40:08.638Z,99747.31
2023-03-12T02:45:12.944Z,99754.78
2023-03-12T02:50:16.207Z,99762.22
2023-03-12T02:55:19.159Z,99760.00
2023-03-12T03:00:23.631Z,99761.13
2023-03-12T03:05:28.728Z,99766.00
2023-03-12T03:10:31.779Z,99775.41
2023-03-12T03:15:36.223Z,99765.94
2023-03-12T03:20:39.394Z,99779.75
2023-03-12T03:25:42.177Z,99785.34
2023-03-12T03:30:46.773Z,99775.06
2023-03-12T03:35:50.631Z,99781.66
2023-03-12T03:40:54.094Z,99791.91
2023-03-12T03:46:03.799Z,99790.28
2023-03-12T03:51:11.957Z,99788.72
2023-03-12T03:56:18.899Z,99789.16
2023-03-12T04:01:25.970Z,99789.25
2023-03-12T04:06:29.829Z,99796.09
2023-03-12T04:11:33.180Z,99788.47
2023-03-12T04:16:38.879Z,99788.59
2023-03-12T04:21:41.742Z,99797.84
2023-03-12T04:26:45.154Z,99802.50
2023-03-12T04:31:50.353Z,99803.56
2023-03-12T04:36:53.229Z,99811.75
2023-03-12T04:41:57.842Z,99812.84
2023-03-12T04:47:04.060Z,99809.53
2023-03-12T04:52:07.627Z,99805.22
2023-03-12T04:57:10.896Z,99799.22
2023-03-12T05:02:15.041Z,99802.97
2023-03-12T05:07:19.706Z,99813.13
2023-03-12T05:12:22.588Z,99808.78
2023-03-12T05:17:26.868Z,99815.03
2023-03-12T05:22:29.728Z,99806.75
2023-03-12T05:27:33.252Z,99811.78
2023-03-12T05:32:37.464Z,99804.16
2023-03-12T05:37:42.853Z,99813.31
2023-03-12T05:42:46.793Z,99808.38
2023-03-12T05:47:51.219Z,99809.44
2023-03-12T05:52:54.224Z,99820.31
2023-03-12T05:57:57.007Z,99828.50
2023-03-12T06:03:01.280Z,99827.63
2023-03-12T06:08:05.462Z,99820.63
2023-03-12T06:13:08.775Z,99820.88
2023-03-12T06:18:13.010Z,99819.16
2023-03-12T06:23:15.782Z,99817.34
2023-03-12T06:28:18.536Z,99821.94
2023-03-12T06:33:22.603Z,99824.75
2023-03-12T06:38:25.631Z,99823.03
2023-03-12T06:43:30.260Z,99824.94
2023-03-12T06:48:36.738Z,99831.19
2023-03-12T06:53:42.200Z,99833.00
2023-03-12T06:58:45.803Z,99835.69
2023-03-12T07:03:49.940Z,99834.75
2023-03-12T07:08:53.424Z,99825.91
2023-03-12T07:13:57.242Z,99829.56
2023-03-12T07:19:01.555Z,99832.16
2023-03-12T07:24:06.939Z,99829.47
2023-03-12T07:29:09.733Z,99825.84
2023-03-12T07:34:13.917Z,99825.91
2023-03-12T07:39:16.733Z,99817.00
2023-03-12T07:44:19.468Z,99818.63
2023-03-12T07:49:23.640Z,99810.56
2023-03-12T07:54:30.564Z,99811.44
2023-03-12T07:59:33.885Z,99813.25
2023-03-12T08:04:38.083Z,99796.56
2023-03-12T08:09:40.995Z,99819.44
2023-03-12T08:14:44.122Z,99831.09
2023-03-12T08:19:48.573Z,99816.53
2023-03-12T08:24:51.266Z,99815.03
2023-03-12T08:29:54.001Z,99809.66
2023-03-12T08:34:58.638Z,99805.94
2023-03-12T08:40:01.429Z,99810.66
2023-03-12T08:45:04.504Z,99793.25
2023-03-12T08:50:09.976Z,99788.03
2023-03-12T08:55:13.088Z,99787.38
2023-03-12T09:00:18.142Z,99775.88
2023-03-12T09:05:22.425Z,99780.34
2023-03-12T09:10:25.712Z,99781.59
2023-03-12T09:15:28.757Z,99773.84
2023-03-12T09:20:32.878Z,99772.19
2023-03-12T09:25:35.622Z,99769.97
2023-03-12T09:30:39.049Z,99765.00
2023-03-12T09:35:43.858Z,99761.00
2023-03-12T09:40:48.463Z,99752.66
2023-03-12T09:45:52.958Z,99757.59
2023-03-12T09:50:57.540Z,99755.28
2023-03-12T09:56:03.582Z,99745.03
2023-03-12T10:01:19.338Z,99739.31
2023-03-12T10:06:25.820Z,99734.56
2023-03-12T10:11:39.116Z,99730.66
2023-03-12T10:16:55.363Z,99719.63
2023-03-12T10:22:08.041Z,99723.81
2023-03-12T10:27:14.700Z,99713.91
2023-03-12T10:32:21.995Z,99703.84
2023-03-12T10:37:30.407Z,99715.25
2023-03-12T10:42:34.235Z,99721.34
2023-03-12T10:47:38.592Z,99722.84
2023-03-12T10:52:43.406Z,99706.31
2023-03-12T10:57:46.138Z,99690.66
2023-03-12T11:02:58.671Z,99696.03
2023-03-12T11:08:04.369Z,99684.91
2023-03-12T11:13:23.842Z,99688.44
2023-03-12T11:18:32.133Z,99671.03
2023-03-12T11:23:37.617Z,99661.88
2023-03-12T11:28:44.107Z,99647.41
2023-03-12T11:33:46.798Z,99641.28
2023-03-12T11:38:58.733Z,99635.41
2023-03-12T11:44:20.616Z,99634.78
2023-03-12T11:49:37.838Z,99621.69
2023-03-12T11:54:58.756Z,99604.78
2023-03-12T12:00:13.088Z,99593.03
2023-03-12T12:05:23.381Z,99589.34
2023-03-12T12:10:32.677Z,99588.88
2023-03-12T12:15:44.225Z,99585.63
2023-03-12T12:20:51.550Z,99573.41
2023-03-12T12:26:05.670Z,99554.06
2023-03-12T12:31:31.002Z,99539.47
2023-03-12T12:36:36.045Z,99535.06
2023-03-12T12:41:48.439Z,99527.84
2023-03-12T12:46:58.628Z,99527.38
2023-03-12T12:52:05.885Z,99519.09
2023-03-12T12:57:16.708Z,99518.00
2023-03-12T13:02:23.159Z,99522.13
2023-03-12T13:07:34.901Z,99514.53
2023-03-12T13:12:48.589Z,99515.03
2023-03-12T13:18:23.759Z,99506.81
2023-03-12T13:23:37.714Z,99509.97
2023-03-12T13:29:14.048Z,99522.94
2023-03-12T13:34:53.495Z,99522.56
2023-03-12T13:39:56.456Z,99537.75
2023-03-12T13:45:23.104Z,99533.97
2023-03-12T13:50:26.640Z,99508.34
2023-03-12T13:55:31.570Z,99495.47
2023-03-12T14:00:42.404Z,99485.31
2023-03-12T14:05:52.941Z,99491.69
2023-03-12T14:11:13.844Z,99478.09
2023-03-12T14:16:27.061Z,99467.16
2023-03-12T14:21:36.988Z,99463.38
2023-03-12T14:26:41.296Z,99454.31
2023-03-12T14:31:46.918Z,99458.13
2023-03-12T14:36:58.766Z,99444.78
2023-03-12T14:42:04.893Z,99449.06
2023-03-12T14:47:11.440Z,99436.44
2023-03-12T14:52:15.175Z,99428.50
2023-03-12T14:57:24.520Z,99406.09
2023-03-12T15:02:31.123Z,99402.53
2023-03-12T15:07:37.307Z,99400.72
2023-03-12T15:12:40.127Z,99389.94
2023-03-12T15:17:44.505Z,99391.03
2023-03-12T15:22:47.586Z,99392.72
2023-03-12T15:28:00.886Z,99379.28
2023-03-12T15:33:13.977Z,99351.47
2023-03-12T15:38:18.361Z,99357.72
2023-03-12T15:43:22.761Z,99358.47
2023-03-12T15:48:30.737Z,99359.19
2023-03-12T15:53:35.306Z,99355.25
2023-03-12T15:58:39.928Z,99355.41
2023-03-12T16:03:46.178Z,99353.03
2023-03-12T16:08:51.928Z,99349.75
2023-03-12T16:14:02.857Z,99345.91
2023-03-12T16:19:13.004Z,99347.22
2023-03-12T16:24:16.763Z,99357.47
2023-03-12T16:29:21.378Z,99356.91
2023-03-12T16:34:26.646Z,99359.75
2023-03-12T16:39:32.954Z,99353.81
2023-03-12T16:44:36.108Z,99349.03
2023-03-12T16:49:40.912Z,99338.81
2023-03-12T16:54:43.648Z,99335.00
2023-03-12T16:59:46.445Z,99341.78
2023-03-12T17:04:51.058Z,99345.94
2023-03-12T17:09:53.947Z,99379.75
2023-03-12T17:14:57.407Z,99365.97
2023-03-12T17:20:01.433Z,99366.00
2023-03-12T17:25:05.273Z,99368.47
2023-03-12T17:30:09.499Z,99388.28
2023-03-12T17:35:14.144Z,99391.78
2023-03-12T17:40:17.006Z,99387.00
2023-03-12T17:45:21.649Z,99380.47
2023-03-12T17:50:25.943Z,99372.75
2023-03-12T17:55:28.650Z,99364.03
2023-03-12T18:00:31.514Z,99361.19
2023-03-12T18:05:39.445Z,99369.16
2023-03-12T18:10:42.349Z,99385.59
2023-03-12T18:15:51.417Z,99386.91
2023-03-12T18:20:55.871Z,99385.91
2023-03-12T18:25:58.590Z,99388.75
2023-03-12T18:31:01.404Z,99393.28
2023-03-12T18:36:06.370Z,99389.84
2023-03-12T18:41:12.257Z,99399.94
2023-03-12T18:46:15.024Z,99401.38
2023-03-12T18:51:19.098Z,99396.69
2023-03-12T18:56:21.779Z,99409.06
2023-03-12T19:01:24.583Z,99421.91
2023-03-12T19:06:35.028Z,99409.06
2023-03-12T19:11:43.751Z,99408.06
2023-03-12T19:16:46.471Z,99412.72
2023-03-12T19:21:50.641Z,99417.47
2023-03-12T19:26:53.332Z,99418.19
2023-03-12T19:31:56.084Z,99412.78
2023-03-12T19:37:00.200Z,99409.22
2023-03-12T19:42:03.078Z,99411.94
2023-03-12T19:47:06.998Z,99413.78
2023-03-12T19:52:11.313Z,99417.31
2023-03-12T19:57:14.066Z,99421.03
2023-03-12T20:02:17.044Z,99423.97
2023-03-12T20:07:21.326Z,99419.31
2023-03-12T20:12:24.562Z,99413.47
2023-03-12T20:17:27.848Z,99405.81
2023-03-12T20:22:32.767Z,99399.00
2023-03-12T20:27:35.508Z,99405.94
2023-03-12T20:32:38.270Z,99411.44
2023-03-12T20:37:42.423Z,99403.09
2023-03-12T20:42:45.340Z,99404.94
2023-03-12T20:47:48.082Z,99404.03
2023-03-12T20:52:52.427Z,99411.66
2023-03-12T20:57:55.244Z,99421.19
2023-03-12T21:02:57.939Z,99410.41
2023-03-12T21:08:02.025Z,99413.88
2023-03-12T21:13:05.967Z,99398.41
2023-03-12T21:18:08.677Z,99392.81
2023-03-12T21:23:13.111Z,99385.59
2023-03-12T21:28:16.171Z,99384.88
2023-03-12T21:33:19.220Z,99377.28
2023-03-12T21:38:23.453Z,99376.00
2023-03-12T21:43:30.074Z,99352.81
2023-03-12T21:48:32.866Z,99361.53
2023-03-12T21:53:37.756Z,99358.97
2023-03-12T21:58:40.645Z,99373.00
2023-03-12T22:03:44.712Z,99356.28
2023-03-12T22:08:49.108Z,99370.50
2023-03-12T22:13:51.815Z,99378.06
2023-03-12T22:18:54.523Z,99385.56
2023-03-12T22:23:58.833Z,99385.56
2023-03-12T22:29:02.121Z,99386.28
2023-03-12T22:34:04.845Z,99377.50
2023-03-12T22:39:08.980Z,99376.81
2023-03-12T22:44:11.726Z,99376.34
2023-03-12T22:49:16.215Z,99370.38
2023-03-12T22:54:20.652Z,99352.63
2023-03-12T22:59:23.397Z,99349.94
2023-03-12T23:04:26.271Z,99345.53
2023-03-12T23:09:30.609Z,99348.66
2023-03-12T23:14:34.490Z,99350.38
2023-03-12T23:19:37.257Z,99344.69
2023-03-12T23:24:41.431Z,99337.59
2023-03-12T23:29:44.072Z,99337.84
2023-03-12T23:34:46.743Z,99330.75
2023-03-12T23:39:54.820Z,99325.22
2023-03-12T23:44:57.760Z,99331.63
2023-03-12T23:50:00.446Z,99325.66
2023-03-12T23:55:04.980Z,99322.38
